createdAt,value
2018-10-17T00:01:15.816Z,5.37
2018-10-17T00:05:13.670Z,5.43
2018-10-17T00:09:11.336Z,5.53
2018-10-17T00:13:08.119Z,5.37
2018-10-17T00:17:04.945Z,4.90
2018-10-17T00:21:02.345Z,5.13
2018-10-17T00:24:59.146Z,4.80
2018-10-17T00:28:55.814Z,5.33
2018-10-17T00:32:52.399Z,4.33
2018-10-17T00:36:49.351Z,5.10
2018-10-17T00:40:46.034Z,4.00
2018-10-17T00:44:42.484Z,3.50
2018-10-17T00:48:39.227Z,3.23
2018-10-17T00:52:35.829Z,3.63
2018-10-17T00:56:32.466Z,3.83
2018-10-17T01:00:29.065Z,3.50
2018-10-17T01:04:25.619Z,3.17
2018-10-17T01:08:22.432Z,3.23
2018-10-17T01:12:19.292Z,2.97
2018-10-17T01:16:16.185Z,3.40
2018-10-17T01:20:12.897Z,3.43
2018-10-17T01:24:09.605Z,3.20
2018-10-17T01:28:06.236Z,3.40
2018-10-17T01:32:03.036Z,3.33
2018-10-17T01:36:00.904Z,3.27
2018-10-17T01:39:57.476Z,3.40
2018-10-17T01:43:54.226Z,3.20
2018-10-17T01:47:50.904Z,3.20
2018-10-17T01:51:47.756Z,3.10
2018-10-17T01:55:44.431Z,2.90
2018-10-17T01:59:41.191Z,2.97
2018-10-17T02:03:37.728Z,2.93
2018-10-17T02:07:34.305Z,2.70
2018-10-17T02:11:31.081Z,2.73
2018-10-17T02:15:27.629Z,2.73
2018-10-17T02:19:24.313Z,2.53
2018-10-17T02:23:20.621Z,2.50
2018-10-17T02:27:17.293Z,2.60
2018-10-17T02:31:14.822Z,2.50
2018-10-17T02:35:17.497Z,3.87
2018-10-17T02:39:14.491Z,2.97
2018-10-17T02:43:11.413Z,2.80
2018-10-17T02:47:07.941Z,2.60
2018-10-17T02:51:05.032Z,2.73
2018-10-17T02:55:01.681Z,3.13
2018-10-17T02:58:58.154Z,3.10
2018-10-17T03:02:55.035Z,2.77
2018-10-17T03:06:51.881Z,3.30
2018-10-17T03:10:48.697Z,3.87
2018-10-17T03:14:45.317Z,3.07
2018-10-17T03:18:42.070Z,3.13
2018-10-17T03:22:38.831Z,3.07
2018-10-17T03:26:35.695Z,3.30
2018-10-17T03:30:32.643Z,2.90
2018-10-17T03:34:29.845Z,3.77
2018-10-17T03:38:26.782Z,3.20
2018-10-17T03:42:23.122Z,3.30
2018-10-17T03:46:19.473Z,3.50
2018-10-17T03:50:17.390Z,3.23
2018-10-17T03:54:14.069Z,3.30
2018-10-17T03:58:10.985Z,3.83
2018-10-17T04:02:07.778Z,3.25
2018-10-17T04:06:05.680Z,3.40
2018-10-17T04:10:02.785Z,3.60
2018-10-17T04:13:59.693Z,4.10
2018-10-17T04:17:56.714Z,3.70
2018-10-17T04:21:54.148Z,3.80
2018-10-17T04:25:50.745Z,4.20
2018-10-17T04:29:47.453Z,4.40
2018-10-17T04:33:44.024Z,4.00
2018-10-17T04:37:42.432Z,4.00
2018-10-17T04:41:39.073Z,3.83
2018-10-17T04:45:35.710Z,4.53
2018-10-17T04:49:32.421Z,3.73
2018-10-17T04:53:30.263Z,4.47
2018-10-17T04:57:27.237Z,4.27
2018-10-17T05:01:24.560Z,4.03
2018-10-17T05:05:21.807Z,4.77
2018-10-17T05:09:18.479Z,4.00
2018-10-17T05:13:15.298Z,4.00
2018-10-17T05:17:11.918Z,4.78
2018-10-17T05:21:10.034Z,4.50
2018-10-17T05:25:08.373Z,5.37
2018-10-17T05:29:05.133Z,4.53
2018-10-17T05:33:01.727Z,4.22
2018-10-17T05:36:58.277Z,5.27
2018-10-17T05:40:55.134Z,5.62
2018-10-17T05:44:52.605Z,5.00
2018-10-17T05:48:50.030Z,5.20
2018-10-17T05:52:47.269Z,5.30
2018-10-17T05:56:44.052Z,5.03
2018-10-17T06:00:41.103Z,5.13
2018-10-17T06:04:37.853Z,4.43
2018-10-17T06:08:34.573Z,5.17
2018-10-17T06:12:31.271Z,5.10
2018-10-17T06:16:28.527Z,5.07
2018-10-17T06:20:25.587Z,4.47
2018-10-17T06:24:22.519Z,4.50
2018-10-17T06:28:19.451Z,4.97
2018-10-17T06:32:16.727Z,4.73
2018-10-17T06:36:15.266Z,5.62
2018-10-17T06:40:12.225Z,5.40
2018-10-17T06:44:11.887Z,4.70
2018-10-17T06:48:09.143Z,4.80
2018-10-17T06:52:08.062Z,6.55
2018-10-17T06:56:04.923Z,5.87
2018-10-17T07:00:02.638Z,5.27
2018-10-17T07:04:00.039Z,5.47
2018-10-17T07:07:56.700Z,5.57
2018-10-17T07:11:54.138Z,5.93
2018-10-17T07:15:51.122Z,6.27
2018-10-17T07:19:48.043Z,5.40
2018-10-17T07:23:46.096Z,5.33
2018-10-17T07:27:43.152Z,6.97
2018-10-17T07:31:40.010Z,5.73
2018-10-17T07:35:37.137Z,5.57
2018-10-17T07:39:35.073Z,6.30
2018-10-17T07:43:32.268Z,5.87
2018-10-17T07:47:29.194Z,6.03
2018-10-17T07:51:25.980Z,5.80
2018-10-17T07:55:23.544Z,5.40
2018-10-17T07:59:20.706Z,5.73
2018-10-17T08:03:17.998Z,7.25
2018-10-17T08:07:16.242Z,5.58
2018-10-17T08:11:18.542Z,5.73
2018-10-17T08:15:15.411Z,5.67
2018-10-17T08:19:12.343Z,5.33
2018-10-17T08:23:09.058Z,5.47
2018-10-17T08:27:08.711Z,5.83
2018-10-17T08:31:05.562Z,5.83
2018-10-17T08:35:03.066Z,5.33
2018-10-17T08:39:00.943Z,5.47
2018-10-17T08:42:58.154Z,5.45
2018-10-17T08:46:55.195Z,5.30
2018-10-17T08:50:52.394Z,5.47
2018-10-17T08:54:49.439Z,5.07
2018-10-17T08:58:46.642Z,5.00
2018-10-17T09:02:44.582Z,5.23
2018-10-17T09:06:41.300Z,4.53
2018-10-17T09:10:38.503Z,5.27
2018-10-17T09:14:35.991Z,5.50
2018-10-17T09:18:32.952Z,6.00
2018-10-17T09:22:30.147Z,5.07
2018-10-17T09:26:27.223Z,5.57
2018-10-17T09:30:24.115Z,7.40
2018-10-17T09:34:21.500Z,6.00
2018-10-17T09:38:18.068Z,6.23
2018-10-17T09:42:16.627Z,5.28
2018-10-17T09:46:13.522Z,6.12
2018-10-17T09:50:11.432Z,5.50
2018-10-17T09:54:09.862Z,5.70
2018-10-17T09:58:12.107Z,6.07
2018-10-17T10:02:11.313Z,6.06
2018-10-17T10:06:08.305Z,8.00
2018-10-17T10:10:05.711Z,5.03
2018-10-17T10:14:02.254Z,5.20
2018-10-17T10:18:00.764Z,7.00
2018-10-17T10:21:57.617Z,6.00
2018-10-17T10:25:54.463Z,5.50
2018-10-17T10:29:52.385Z,5.97
2018-10-17T10:33:49.148Z,5.90
2018-10-17T10:37:46.338Z,6.10
2018-10-17T10:41:43.086Z,5.57
2018-10-17T10:45:39.838Z,5.93
2018-10-17T10:49:36.772Z,6.27
2018-10-17T10:53:33.672Z,5.73
2018-10-17T10:57:30.317Z,6.75
2018-10-17T11:01:28.375Z,5.75
2018-10-17T11:05:25.635Z,4.97
2018-10-17T11:09:22.624Z,5.75
2018-10-17T11:13:19.490Z,5.87
2018-10-17T11:17:16.438Z,5.10
2018-10-17T11:21:13.640Z,5.70
2018-10-17T11:25:11.693Z,5.63
2018-10-17T11:29:08.315Z,5.20
2018-10-17T11:33:05.239Z,5.10
2018-10-17T11:37:02.446Z,6.27
2018-10-17T11:40:59.320Z,6.80
2018-10-17T11:44:59.868Z,6.27
2018-10-17T11:48:56.434Z,6.30
2018-10-17T11:52:53.296Z,6.77
2018-10-17T11:56:49.842Z,5.97
2018-10-17T12:00:47.651Z,6.50
2018-10-17T12:04:44.533Z,6.50
2018-10-17T12:08:41.330Z,6.77
2018-10-17T12:12:38.372Z,6.07
2018-10-17T12:16:35.190Z,6.13
2018-10-17T12:20:32.042Z,6.27
2018-10-17T12:24:28.886Z,6.30
2018-10-17T12:28:26.627Z,6.20
2018-10-17T12:32:23.348Z,6.77
2018-10-17T12:36:19.897Z,6.43
2018-10-17T12:40:17.728Z,5.92
2018-10-17T12:44:14.203Z,6.90
2018-10-17T12:48:11.434Z,6.20
2018-10-17T12:52:08.261Z,6.80
2018-10-17T12:56:06.221Z,7.90
2018-10-17T13:00:02.904Z,7.90
2018-10-17T13:03:59.919Z,7.97
2018-10-17T13:07:56.691Z,7.23
2018-10-17T13:11:53.383Z,7.30
2018-10-17T13:15:50.408Z,7.20
2018-10-17T13:19:47.304Z,7.40
2018-10-17T13:23:45.049Z,6.87
2018-10-17T13:27:42.377Z,6.87
2018-10-17T13:31:39.491Z,7.20
2018-10-17T13:35:36.274Z,7.10
2018-10-17T13:39:33.398Z,7.25
2018-10-17T13:43:30.581Z,8.77
2018-10-17T13:47:27.122Z,8.33
2018-10-17T13:51:23.858Z,8.57
2018-10-17T13:55:22.001Z,8.10
2018-10-17T13:59:18.742Z,8.63
2018-10-17T14:03:15.580Z,9.10
2018-10-17T14:07:13.300Z,8.50
2018-10-17T14:11:09.811Z,8.30
2018-10-17T14:15:06.766Z,11.00
2018-10-17T14:19:05.233Z,8.20
2018-10-17T14:23:02.101Z,8.87
2018-10-17T14:26:58.759Z,9.17
2018-10-17T14:30:57.100Z,9.60
2018-10-17T14:34:54.087Z,8.90
2018-10-17T14:38:50.902Z,10.53
2018-10-17T14:42:47.673Z,11.27
2018-10-17T14:46:44.847Z,11.57
2018-10-17T14:50:41.445Z,12.43
2018-10-17T14:54:38.452Z,12.17
2018-10-17T14:58:35.475Z,12.67
2018-10-17T15:02:33.692Z,12.58
2018-10-17T15:06:31.233Z,13.60
2018-10-17T15:10:39.764Z,14.87
2018-10-17T15:14:39.104Z,13.47
2018-10-17T15:18:35.753Z,16.10
2018-10-17T15:22:32.504Z,14.77
2018-10-17T15:26:32.009Z,13.83
2018-10-17T15:30:28.742Z,13.30
2018-10-17T15:34:26.177Z,14.50
2018-10-17T15:38:23.302Z,14.43
2018-10-17T15:42:31.311Z,14.70
2018-10-17T15:46:28.475Z,15.27
2018-10-17T15:56:52.108Z,15.03
2018-10-17T16:00:49.785Z,14.57
2018-10-17T16:04:47.045Z,14.47
2018-10-17T16:08:43.692Z,14.20
2018-10-17T16:12:40.583Z,14.83
2018-10-17T16:16:38.302Z,14.33
2018-10-17T16:20:35.293Z,13.90
2018-10-17T16:24:32.391Z,14.33
2018-10-17T16:28:29.215Z,14.43
2018-10-17T16:32:26.073Z,14.03
2018-10-17T16:36:22.817Z,13.90
2018-10-17T16:40:19.798Z,14.37
2018-10-17T16:44:16.514Z,16.07
2018-10-17T16:48:13.693Z,19.87
2018-10-17T16:52:11.012Z,20.53
2018-10-17T16:56:08.719Z,19.73
2018-10-17T17:00:06.545Z,20.33
2018-10-17T17:04:04.081Z,21.23
2018-10-17T17:08:00.843Z,21.90
2018-10-17T17:11:57.844Z,22.43
2018-10-17T17:15:54.583Z,23.23
2018-10-17T17:19:51.717Z,24.27
2018-10-17T17:23:49.402Z,23.73
2018-10-17T17:27:46.446Z,24.03
2018-10-17T17:31:43.221Z,26.47
2018-10-17T17:35:39.946Z,26.60
2018-10-17T17:39:36.956Z,28.93
2018-10-17T17:43:33.761Z,28.70
2018-10-17T17:47:31.072Z,28.53
2018-10-17T17:51:28.025Z,29.97
2018-10-17T17:55:24.745Z,28.83
2018-10-17T17:59:21.456Z,29.03
2018-10-17T18:03:18.268Z,28.90
2018-10-17T18:07:15.006Z,28.93
2018-10-17T18:11:21.606Z,30.20
2018-10-17T18:15:18.801Z,30.23
2018-10-17T18:19:15.556Z,30.37
2018-10-17T18:23:12.155Z,30.53
2018-10-17T18:27:08.846Z,30.93
2018-10-17T18:31:05.538Z,29.87
2018-10-17T18:35:02.770Z,29.57
2018-10-17T18:38:59.301Z,29.73
2018-10-17T18:42:56.037Z,30.00
2018-10-17T18:46:52.628Z,32.00
2018-10-17T18:50:49.455Z,31.83
2018-10-17T18:54:46.668Z,34.30
2018-10-17T18:58:43.668Z,30.97
2018-10-17T19:02:40.766Z,30.93
2018-10-17T19:06:39.106Z,32.50
2018-10-17T19:10:37.724Z,31.17
2018-10-17T19:14:34.384Z,32.57
2018-10-17T19:18:33.368Z,33.53
2018-10-17T19:22:39.388Z,35.37
2018-10-17T19:26:36.402Z,32.20
2018-10-17T19:30:34.157Z,31.87
2018-10-17T19:34:30.778Z,34.43
2018-10-17T19:38:29.425Z,32.50
2018-10-17T19:42:41.850Z,33.23
2018-10-17T19:46:55.237Z,32.87
2018-10-17T19:50:52.424Z,33.00
2018-10-17T19:54:50.622Z,32.97
2018-10-17T19:58:49.558Z,33.33
2018-10-17T20:02:49.845Z,31.47
2018-10-17T20:06:47.212Z,31.10
2018-10-17T20:10:44.272Z,34.33
2018-10-17T20:14:41.454Z,32.03
2018-10-17T20:22:40.067Z,32.27
2018-10-17T20:30:38.962Z,32.23
2018-10-17T20:34:36.147Z,32.13
2018-10-17T20:38:33.204Z,33.23
2018-10-17T20:42:30.010Z,33.43
2018-10-17T20:46:29.862Z,33.00
2018-10-17T20:50:27.426Z,32.53
2018-10-17T20:54:24.862Z,32.07
2018-10-17T20:58:22.258Z,31.93
2018-10-17T21:02:20.541Z,30.93
2018-10-17T21:06:17.761Z,29.17
2018-10-17T21:10:19.160Z,27.87
2018-10-17T21:14:16.271Z,32.17
2018-10-17T21:18:13.146Z,30.73
2018-10-17T21:22:10.141Z,31.20
2018-10-17T21:26:20.091Z,29.90
2018-10-17T21:30:19.551Z,29.60
2018-10-17T21:34:16.426Z,29.20
2018-10-17T21:38:13.363Z,28.27
2018-10-17T21:42:10.539Z,27.30
2018-10-17T21:46:08.002Z,26.87
2018-10-17T21:50:05.898Z,27.63
2018-10-17T21:54:04.149Z,26.27
2018-10-17T21:58:00.876Z,28.50
2018-10-17T22:01:57.779Z,31.97
2018-10-17T22:05:55.026Z,32.53
2018-10-17T22:09:52.024Z,30.73
2018-10-17T22:13:48.744Z,31.87
2018-10-17T22:17:45.986Z,32.60
2018-10-17T22:21:43.372Z,32.07
2018-10-17T22:25:40.038Z,31.03
2018-10-17T22:29:36.677Z,31.07
2018-10-17T22:33:33.450Z,31.47
2018-10-17T22:37:30.047Z,30.87
2018-10-17T22:41:27.083Z,31.90
2018-10-17T22:45:23.888Z,32.60
2018-10-17T22:49:21.025Z,31.27
2018-10-17T22:53:17.782Z,32.57
2018-10-17T22:57:14.501Z,30.47
2018-10-17T23:01:11.391Z,32.10
2018-10-17T23:05:08.171Z,32.77
2018-10-17T23:09:08.941Z,30.90
2018-10-17T23:13:05.770Z,31.87
2018-10-17T23:17:02.344Z,31.57
2018-10-17T23:20:59.101Z,29.97
2018-10-17T23:24:56.083Z,30.77
2018-10-17T23:28:53.129Z,30.70
2018-10-17T23:50:52.344Z,31.57
2018-10-17T23:54:48.900Z,31.17
2018-10-17T23:58:45.950Z,31.03
